sensor_id;sensor_type;location;lat;lon;timestamp;pressure;altitude;pressure_sealevel;temperature;humidity
68226;BME280;55045;49.410;11.030;2023-02-15T00:01:30;99637.56;;;-1.75;100.00
68226;BME280;55045;49.410;11.030;2023-02-15T00:04:34;99639.72;;;-1.57;100.00
68226;BME280;55045;49.410;11.030;2023-02-15T00:07:50;99630.75;;;-1.43;100.00
68226;BME280;55045;49.410;11.030;2023-02-15T00:11:03;99622.75;;;-1.58;100.00
68226;BME280;55045;49.410;11.030;2023-02-15T00:14:07;99625.03;;;-1.69;100.00
68226;BME280;55045;49.410;11.030;2023-02-15T00:17:11;99620.16;;;-1.60;100.00
68226;BME280;55045;49.410;11.030;2023-02-15T00:20:14;99626.22;;;-1.55;100.00
68226;BME280;55045;49.410;11.030;2023-02-15T00:23:19;99614.34;;;-1.54;100.00
68226;BME280;55045;49.410;11.030;2023-02-15T00:26:23;99620.22;;;-1.57;100.00
68226;BME280;55045;49.410;11.030;2023-02-15T00:29:26;99617.25;;;-1.40;100.00
68226;BME280;55045;49.410;11.030;2023-02-15T00:32:29;99610.72;;;-1.64;100.00
68226;BME280;55045;49.410;11.030;2023-02-15T00:35:36;99610.53;;;-1.73;100.00
68226;BME280;55045;49.410;11.030;2023-02-15T00:38:40;99623.75;;;-1.52;100.00
68226;BME280;55045;49.410;11.030;2023-02-15T00:41:45;99613.00;;;-1.75;100.00
68226;BME280;55045;49.410;11.030;2023-02-15T00:44:49;99625.25;;;-1.60;100.00
68226;BME280;55045;49.410;11.030;2023-02-15T00:47:52;99617.63;;;-1.60;100.00
68226;BME280;55045;49.410;11.030;2023-02-15T00:50:57;99619.75;;;-1.77;100.00
68226;BME280;55045;49.410;11.030;2023-02-15T00:54:02;99618.94;;;-1.74;100.00
68226;BME280;55045;49.410;11.030;2023-02-15T00:57:06;99615.25;;;-1.87;100.00
68226;BME280;55045;49.410;11.030;2023-02-15T01:00:10;99614.66;;;-1.77;100.00
68226;BME280;55045;49.410;11.030;2023-02-15T01:03:16;99613.25;;;-1.98;100.00
68226;BME280;55045;49.410;11.030;2023-02-15T01:06:19;99607.06;;;-1.75;100.00
68226;BME280;55045;49.410;11.030;2023-02-15T01:09:24;99607.81;;;-1.79;100.00
68226;BME280;55045;49.410;11.030;2023-02-15T01:12:27;99605.91;;;-1.88;100.00
68226;BME280;55045;49.410;11.030;2023-02-15T01:15:31;99588.38;;;-1.41;100.00
68226;BME280;55045;49.410;11.030;2023-02-15T01:18:36;99596.38;;;-1.95;100.00
68226;BME280;55045;49.410;11.030;2023-02-15T01:21:39;99601.59;;;-1.90;100.00
68226;BME280;55045;49.410;11.030;2023-02-15T01:24:48;99597.72;;;-2.09;100.00
68226;BME280;55045;49.410;11.030;2023-02-15T01:27:52;99594.44;;;-2.05;100.00
68226;BME280;55045;49.410;11.030;2023-02-15T01:30:55;99587.59;;;-2.08;100.00
68226;BME280;55045;49.410;11.030;2023-02-15T01:33:58;99603.00;;;-2.03;100.00
68226;BME280;55045;49.410;11.030;2023-02-15T01:37:01;99579.97;;;-2.08;100.00
68226;BME280;55045;49.410;11.030;2023-02-15T01:40:10;99581.44;;;-2.16;100.00
68226;BME280;55045;49.410;11.030;2023-02-15T01:43:14;99574.59;;;-2.20;100.00
68226;BME280;55045;49.410;11.030;2023-02-15T01:46:20;99567.81;;;-2.19;100.00
68226;BME280;55045;49.410;11.030;2023-02-15T01:49:26;99577.88;;;-2.24;100.00
68226;BME280;55045;49.410;11.030;2023-02-15T01:52:30;99548.06;;;-2.29;100.00
68226;BME280;55045;49.410;11.030;2023-02-15T01:55:39;99557.81;;;-2.13;100.00
68226;BME280;55045;49.410;11.030;2023-02-15T01:58:45;99559.28;;;-2.21;100.00
68226;BME280;55045;49.410;11.030;2023-02-15T02:01:52;99555.00;;;-2.24;100.00
68226;BME280;55045;49.410;11.030;2023-02-15T02:05:00;99550.06;;;-2.18;100.00
68226;BME280;55045;49.410;11.030;2023-02-15T02:08:08;99550.78;;;-1.89;100.00
68226;BME280;55045;49.410;11.030;2023-02-15T02:11:13;99562.84;;;-2.15;100.00
68226;BME280;55045;49.410;11.030;2023-02-15T02:14:22;99557.91;;;-2.09;100.00
68226;BME280;55045;49.410;11.030;2023-02-15T02:17:35;99492.41;;;-2.53;100.00
68226;BME280;55045;49.410;11.030;2023-02-15T02:24:23;99555.34;;;-2.10;100.00
68226;BME280;55045;49.410;11.030;2023-02-15T02:27:39;99556.78;;;-2.20;100.00
68226;BME280;55045;49.410;11.030;2023-02-15T02:31:10;99548.34;;;-2.19;100.00
68226;BME280;55045;49.410;11.030;2023-02-15T02:34:28;99551.13;;;-2.10;100.00
68226;BME280;55045;49.410;11.030;2023-02-15T02:37:37;99547.38;;;-2.24;100.00
68226;BME280;55045;49.410;11.030;2023-02-15T02:40:50;99542.19;;;-2.27;100.00
68226;BME280;55045;49.410;11.030;2023-02-15T02:44:02;99537.03;;;-2.30;100.00
68226;BME280;55045;49.410;11.030;2023-02-15T02:47:11;99528.72;;;-2.56;100.00
68226;BME280;55045;49.410;11.030;2023-02-15T02:50:22;99528.94;;;-2.48;100.00
68226;BME280;55045;49.410;11.030;2023-02-15T02:53:28;99526.69;;;-2.38;100.00
68226;BME280;55045;49.410;11.030;2023-02-15T02:56:36;99530.50;;;-2.53;100.00
68226;BME280;55045;49.410;11.030;2023-02-15T02:59:45;99514.28;;;-2.58;100.00
68226;BME280;55045;49.410;11.030;2023-02-15T03:02:54;99526.53;;;-2.44;100.00
68226;BME280;55045;49.410;11.030;2023-02-15T03:06:06;99535.88;;;-2.43;100.00
68226;BME280;55045;49.410;11.030;2023-02-15T03:09:15;99525.97;;;-2.34;100.00
68226;BME280;55045;49.410;11.030;2023-02-15T03:12:20;99526.69;;;-2.38;100.00
68226;BME280;55045;49.410;11.030;2023-02-15T03:15:29;99522.94;;;-2.19;100.00
68226;BME280;55045;49.410;11.030;2023-02-15T03:18:56;99521.81;;;-2.30;100.00
68226;BME280;55045;49.410;11.030;2023-02-15T03:22:08;99516.69;;;-2.32;100.00
68226;BME280;55045;49.410;11.030;2023-02-15T03:25:16;99520.66;;;-2.41;100.00
68226;BME280;55045;49.410;11.030;2023-02-15T03:28:25;99520.94;;;-2.30;100.00
68226;BME280;55045;49.410;11.030;2023-02-15T03:31:36;99520.66;;;-2.41;100.00
68226;BME280;55045;49.410;11.030;2023-02-15T03:34:41;99529.34;;;-2.33;100.00
68226;BME280;55045;49.410;11.030;2023-02-15T03:37:48;99528.84;;;-2.53;100.00
68226;BME280;55045;49.410;11.030;2023-02-15T03:40:56;99529.34;;;-2.33;100.00
68226;BME280;55045;49.410;11.030;2023-02-15T03:44:16;99530.94;;;-2.37;100.00
68226;BME280;55045;49.410;11.030;2023-02-15T03:47:23;99526.06;;;-2.62;100.00
68226;BME280;55045;49.410;11.030;2023-02-15T03:50:30;99529.47;;;-2.60;100.00
68226;BME280;55045;49.410;11.030;2023-02-15T03:53:54;99530.06;;;-2.70;100.00
68226;BME280;55045;49.410;11.030;2023-02-15T03:56:58;99530.28;;;-2.29;100.00
68226;BME280;55045;49.410;11.030;2023-02-15T04:00:18;99492.44;;;-2.85;100.00
68226;BME280;55045;49.410;11.030;2023-02-15T04:03:40;99537.34;;;-2.51;100.00
68226;BME280;55045;49.410;11.030;2023-02-15T04:06:46;99537.03;;;-2.63;100.00
68226;BME280;55045;49.410;11.030;2023-02-15T04:09:51;99537.38;;;-2.49;100.00
68226;BME280;55045;49.410;11.030;2023-02-15T04:13:12;99524.84;;;-2.43;100.00
68226;BME280;55045;49.410;11.030;2023-02-15T04:16:15;99529.16;;;-2.72;100.00
68226;BME280;55045;49.410;11.030;2023-02-15T04:19:17;99520.25;;;-2.56;100.00
68226;BME280;55045;49.410;11.030;2023-02-15T04:22:38;99536.88;;;-2.36;100.00
68226;BME280;55045;49.410;11.030;2023-02-15T04:26:02;99538.44;;;-2.41;100.00
68226;BME280;55045;49.410;11.030;2023-02-15T04:29:06;99549.47;;;-2.41;100.00
68226;BME280;55045;49.410;11.030;2023-02-15T04:34:35;99549.13;;;-2.54;100.00
68226;BME280;55045;49.410;11.030;2023-02-15T04:37:38;99545.94;;;-2.77;100.00
68226;BME280;55045;49.410;11.030;2023-02-15T04:40:42;99549.19;;;-2.83;100.00
68226;BME280;55045;49.410;11.030;2023-02-15T04:43:45;99546.47;;;-2.89;100.00
68226;BME280;55045;49.410;11.030;2023-02-15T04:46:48;99540.94;;;-2.76;100.00
68226;BME280;55045;49.410;11.030;2023-02-15T04:49:53;99537.75;;;-2.97;100.00
68226;BME280;55045;49.410;11.030;2023-02-15T04:52:59;99537.81;;;-2.66;100.00
68226;BME280;55045;49.410;11.030;2023-02-15T04:56:02;99536.81;;;-2.71;100.00
68226;BME280;55045;49.410;11.030;2023-02-15T04:59:05;99533.81;;;-2.56;100.00
68226;BME280;55045;49.410;11.030;2023-02-15T05:02:09;99529.16;;;-2.72;100.00
68226;BME280;55045;49.410;11.030;2023-02-15T05:05:13;99530.91;;;-2.70;100.00
68226;BME280;55045;49.410;11.030;2023-02-15T05:08:17;99526.56;;;-2.75;100.00
68226;BME280;55045;49.410;11.030;2023-02-15T05:11:20;99522.25;;;-2.76;100.00
68226;BME280;55045;49.410;11.030;2023-02-15T05:14:24;99503.00;;;-2.68;100.00
68226;BME280;55045;49.410;11.030;2023-02-15T05:17:27;99513.06;;;-2.73;100.00
68226;BME280;55045;49.410;11.030;2023-02-15T05:20:31;99508.19;;;-2.65;100.00
68226;BME280;55045;49.410;11.030;2023-02-15T05:23:35;99511.59;;;-2.65;100.00
68226;BME280;55045;49.410;11.030;2023-02-15T05:26:38;99508.94;;;-2.68;100.00
68226;BME280;55045;49.410;11.030;2023-02-15T05:29:58;99504.94;;;-2.59;100.00
68226;BME280;55045;49.410;11.030;2023-02-15T05:33:03;99507.47;;;-2.59;100.00
68226;BME280;55045;49.410;11.030;2023-02-15T05:36:08;99497.00;;;-2.72;100.00
68226;BME280;55045;49.410;11.030;2023-02-15T05:39:11;99518.53;;;-2.57;100.00
68226;BME280;55045;49.410;11.030;2023-02-15T05:42:14;99517.66;;;-2.59;100.00
68226;BME280;55045;49.410;11.030;2023-02-15T05:45:17;99515.75;;;-2.67;100.00
68226;BME280;55045;49.410;11.030;2023-02-15T05:48:22;99515.69;;;-2.70;100.00
68226;BME280;55045;49.410;11.030;2023-02-15T05:51:27;99512.06;;;-2.78;100.00
68226;BME280;55045;49.410;11.030;2023-02-15T05:54:30;99509.41;;;-2.82;100.00
68226;BME280;55045;49.410;11.030;2023-02-15T05:57:34;99506.44;;;-2.66;100.00
68226;BME280;55045;49.410;11.030;2023-02-15T06:00:37;99501.63;;;-2.88;100.00
68226;BME280;55045;49.410;11.030;2023-02-15T06:03:41;99500.75;;;-2.57;100.00
68226;BME280;55045;49.410;11.030;2023-02-15T06:06:46;99496.28;;;-2.66;100.00
68226;BME280;55045;49.410;11.030;2023-02-15T06:09:49;99503.81;;;-2.71;100.00
68226;BME280;55045;49.410;11.030;2023-02-15T06:12:52;99498.22;;;-2.57;100.00
68226;BME280;55045;49.410;11.030;2023-02-15T06:15:57;99493.72;;;-2.68;100.00
68226;BME280;55045;49.410;11.030;2023-02-15T06:19:00;99489.78;;;-2.88;100.00
68226;BME280;55045;49.410;11.030;2023-02-15T06:22:05;99488.59;;;-2.69;100.00
68226;BME280;55045;49.410;11.030;2023-02-15T06:25:09;99490.19;;;-2.74;100.00
68226;BME280;55045;49.410;11.030;2023-02-15T06:28:13;99488.25;;;-2.83;100.00
68226;BME280;55045;49.410;11.030;2023-02-15T06:31:16;99496.25;;;-2.99;100.00
68226;BME280;55045;49.410;11.030;2023-02-15T06:34:20;99499.47;;;-3.06;100.00
68226;BME280;55045;49.410;11.030;2023-02-15T06:37:25;99510.41;;;-3.07;100.00
68226;BME280;55045;49.410;11.030;2023-02-15T06:40:28;99518.09;;;-2.74;100.00
68226;BME280;55045;49.410;11.030;2023-02-15T06:43:31;99507.16;;;-3.03;100.00
68226;BME280;55045;49.410;11.030;2023-02-15T06:46:35;99516.66;;;-2.96;100.00
68226;BME280;55045;49.410;11.030;2023-02-15T06:49:38;99519.88;;;-3.02;100.00
68226;BME280;55045;49.410;11.030;2023-02-15T06:52:43;99518.94;;;-2.75;100.00
68226;BME280;55045;49.410;11.030;2023-02-15T06:55:46;99528.72;;;-2.87;100.00
68226;BME280;55045;49.410;11.030;2023-02-15T06:58:49;99531.34;;;-2.54;100.00
68226;BME280;55045;49.410;11.030;2023-02-15T07:01:54;99517.19;;;-2.76;100.00
68226;BME280;55045;49.410;11.030;2023-02-15T07:04:57;99513.13;;;-3.01;100.00
68226;BME280;55045;49.410;11.030;2023-02-15T07:08:02;99510.53;;;-2.73;100.00
68226;BME280;55045;49.410;11.030;2023-02-15T07:11:06;99515.09;;;-2.91;100.00
68226;BME280;55045;49.410;11.030;2023-02-15T07:14:29;99522.50;;;-2.67;100.00
68226;BME280;55045;49.410;11.030;2023-02-15T07:17:33;99494.19;;;-2.82;100.00
68226;BME280;55045;49.410;11.030;2023-02-15T07:20:38;99506.22;;;-2.75;100.00
68226;BME280;55045;49.410;11.030;2023-02-15T07:23:45;99520.41;;;-2.52;100.00
68226;BME280;55045;49.410;11.030;2023-02-15T07:26:48;99516.16;;;-2.51;100.00
68226;BME280;55045;49.410;11.030;2023-02-15T07:29:51;99520.78;;;-2.68;100.00
68226;BME280;55045;49.410;11.030;2023-02-15T07:32:55;99519.25;;;-2.63;100.00
68226;BME280;55045;49.410;11.030;2023-02-15T07:36:20;99493.09;;;-2.91;100.00
68226;BME280;55045;49.410;11.030;2023-02-15T07:39:25;99512.53;;;-2.61;100.00
68226;BME280;55045;49.410;11.030;2023-02-15T07:42:30;99512.44;;;-2.64;100.00
68226;BME280;55045;49.410;11.030;2023-02-15T07:45:33;99509.06;;;-2.65;100.00
68226;BME280;55045;49.410;11.030;2023-02-15T07:48:37;99508.63;;;-2.80;100.00
68226;BME280;55045;49.410;11.030;2023-02-15T07:51:41;99504.16;;;-2.88;100.00
68226;BME280;55045;49.410;11.030;2023-02-15T07:54:45;99504.41;;;-2.79;100.00
68226;BME280;55045;49.410;11.030;2023-02-15T07:57:50;99508.63;;;-2.80;100.00
68226;BME280;55045;49.410;11.030;2023-02-15T08:00:55;99497.91;;;-2.70;100.00
68226;BME280;55045;49.410;11.030;2023-02-15T08:03:59;99504.06;;;-2.62;100.00
68226;BME280;55045;49.410;11.030;2023-02-15T08:07:02;99501.50;;;-2.62;100.00
68226;BME280;55045;49.410;11.030;2023-02-15T08:10:08;99495.44;;;-2.67;100.00
68226;BME280;55045;49.410;11.030;2023-02-15T08:13:11;99505.59;;;-2.67;100.00
68226;BME280;55045;49.410;11.030;2023-02-15T08:16:14;99504.94;;;-2.59;100.00
68226;BME280;55045;49.410;11.030;2023-02-15T08:19:19;99484.03;;;-2.82;100.00
68226;BME280;55045;49.410;11.030;2023-02-15T08:22:23;99499.78;;;-2.63;100.00
68226;BME280;55045;49.410;11.030;2023-02-15T08:25:29;99485.03;;;-2.44;100.00
68226;BME280;55045;49.410;11.030;2023-02-15T08:28:33;99498.53;;;-2.45;100.00
68226;BME280;55045;49.410;11.030;2023-02-15T08:31:36;99491.41;;;-2.58;100.00
68226;BME280;55045;49.410;11.030;2023-02-15T08:34:41;99484.94;;;-2.47;100.00
68226;BME280;55045;49.410;11.030;2023-02-15T08:37:44;99492.31;;;-2.56;100.00
68226;BME280;55045;49.410;11.030;2023-02-15T08:40:49;99485.91;;;-2.42;100.00
68226;BME280;55045;49.410;11.030;2023-02-15T08:43:53;99481.16;;;-2.63;100.00
68226;BME280;55045;49.410;11.030;2023-02-15T08:46:57;99485.38;;;-2.64;100.00
68226;BME280;55045;49.410;11.030;2023-02-15T08:50:06;99497.53;;;-2.52;100.00
68226;BME280;55045;49.410;11.030;2023-02-15T08:53:09;99497.81;;;-2.41;100.00
68226;BME280;55045;49.410;11.030;2023-02-15T08:56:14;99495.06;;;-2.49;100.00
68226;BME280;55045;49.410;11.030;2023-02-15T08:59:19;99494.91;;;-2.55;100.00
68226;BME280;55045;49.410;11.030;2023-02-15T09:02:23;99506.88;;;-2.51;100.00
68226;BME280;55045;49.410;11.030;2023-02-15T09:05:26;99502.81;;;-2.44;100.00
68226;BME280;55045;49.410;11.030;2023-02-15T09:08:29;99500.41;;;-2.38;100.00
68226;BME280;55045;49.410;11.030;2023-02-15T09:11:36;99492.13;;;-2.31;100.00
68226;BME280;55045;49.410;11.030;2023-02-15T09:14:40;99493.25;;;-2.20;100.00
68226;BME280;55045;49.410;11.030;2023-02-15T09:17:43;99488.50;;;-2.41;100.00
68226;BME280;55045;49.410;11.030;2023-02-15T09:20:46;99491.25;;;-2.33;100.00
68226;BME280;55045;49.410;11.030;2023-02-15T09:23:51;99469.88;;;-2.40;100.00
68226;BME280;55045;49.410;11.030;2023-02-15T09:26:55;99479.38;;;-1.98;100.00
68226;BME280;55045;49.410;11.030;2023-02-15T09:29:59;99483.03;;;-1.85;100.00
68226;BME280;55045;49.410;11.030;2023-02-15T09:33:02;99485.47;;;-1.91;100.00
68226;BME280;55045;49.410;11.030;2023-02-15T09:36:15;99477.88;;;-1.90;100.00
68226;BME280;55045;49.410;11.030;2023-02-15T09:39:19;99489.19;;;-1.76;100.00
68226;BME280;55045;49.410;11.030;2023-02-15T09:42:42;99492.50;;;-1.81;100.00
68226;BME280;55045;49.410;11.030;2023-02-15T09:46:02;99493.63;;;-1.68;100.00
68226;BME280;55045;49.410;11.030;2023-02-15T09:49:14;99490.31;;;-1.64;100.00
68226;BME280;55045;49.410;11.030;2023-02-15T09:52:35;99496.41;;;-1.58;100.00
68226;BME280;55045;49.410;11.030;2023-02-15T09:55:50;99478.25;;;-1.73;100.00
68226;BME280;55045;49.410;11.030;2023-02-15T09:59:01;99495.56;;;-1.57;100.00
68226;BME280;55045;49.410;11.030;2023-02-15T10:02:20;99492.53;;;-1.40;100.00
68226;BME280;55045;49.410;11.030;2023-02-15T10:05:37;99500.84;;;-1.48;100.00
68226;BME280;55045;49.410;11.030;2023-02-15T10:08:56;99501.28;;;-1.67;100.00
68226;BME280;55045;49.410;11.030;2023-02-15T10:12:27;99500.81;;;-1.51;100.00
68226;BME280;55045;49.410;11.030;2023-02-15T10:15:52;99505.47;;;-1.69;100.00
68226;BME280;55045;49.410;11.030;2023-02-15T10:19:03;99501.03;;;-1.40;100.00
68226;BME280;55045;49.410;11.030;2023-02-15T10:22:20;99487.44;;;-1.40;100.00
68226;BME280;55045;49.410;11.030;2023-02-15T10:25:35;99484.59;;;-1.13;100.00
68226;BME280;55045;49.410;11.030;2023-02-15T10:28:46;99469.94;;;-1.25;100.00
68226;BME280;55045;49.410;11.030;2023-02-15T10:34:38;99457.94;;;-0.89;100.00
68226;BME280;55045;49.410;11.030;2023-02-15T10:38:00;99453.69;;;-0.90;100.00
68226;BME280;55045;49.410;11.030;2023-02-15T10:41:14;99450.94;;;-1.00;100.00
68226;BME280;55045;49.410;11.030;2023-02-15T10:44:35;99439.41;;;-0.81;100.00
68226;BME280;55045;49.410;11.030;2023-02-15T10:47:54;99424.38;;;-0.66;100.00
68226;BME280;55045;49.410;11.030;2023-02-15T10:51:00;99428.81;;;-0.56;100.00
68226;BME280;55045;49.410;11.030;2023-02-15T10:54:15;99428.91;;;-0.97;100.00
68226;BME280;55045;49.410;11.030;2023-02-15T10:57:27;99417.91;;;-0.96;100.00
68226;BME280;55045;49.410;11.030;2023-02-15T11:00:37;99413.78;;;-0.89;100.00
68226;BME280;55045;49.410;11.030;2023-02-15T11:03:58;99413.03;;;-0.82;100.00
68226;BME280;55045;49.410;11.030;2023-02-15T11:07:15;99404.44;;;-0.40;100.00
68226;BME280;55045;49.410;11.030;2023-02-15T11:10:27;99401.38;;;-0.19;100.00
68226;BME280;55045;49.410;11.030;2023-02-15T11:13:34;99404.78;;;-0.19;100.00
68226;BME280;55045;49.410;11.030;2023-02-15T11:16:42;99394.78;;;-0.58;100.00
68226;BME280;55045;49.410;11.030;2023-02-15T11:19:52;99400.28;;;-0.83;100.00
68226;BME280;55045;49.410;11.030;2023-02-15T11:23:00;99404.44;;;-0.40;100.00
68226;BME280;55045;49.410;11.030;2023-02-15T11:26:11;99401.22;;;-0.28;100.00
68226;BME280;55045;49.410;11.030;2023-02-15T11:29:20;99396.03;;;-0.33;100.00
68226;BME280;55045;49.410;11.030;2023-02-15T11:32:27;99395.47;;;-0.15;100.00
68226;BME280;55045;49.410;11.030;2023-02-15T11:35:34;99396.47;;;-0.06;100.00
68226;BME280;55045;49.410;11.030;2023-02-15T11:38:40;99387.53;;;-0.34;100.00
68226;BME280;55045;49.410;11.030;2023-02-15T11:41:48;99372.41;;;-0.21;100.00
68226;BME280;55045;49.410;11.030;2023-02-15T11:44:59;99374.34;;;-0.07;100.00
68226;BME280;55045;49.410;11.030;2023-02-15T11:48:09;99367.13;;;0.25;100.00
68226;BME280;55045;49.410;11.030;2023-02-15T11:51:16;99376.34;;;0.16;100.00
68226;BME280;55045;49.410;11.030;2023-02-15T11:54:26;99366.06;;;0.10;100.00
68226;BME280;55045;49.410;11.030;2023-02-15T11:57:33;99368.75;;;0.20;100.00
68226;BME280;55045;49.410;11.030;2023-02-15T12:00:41;99376.47;;;0.23;100.00
68226;BME280;55045;49.410;11.030;2023-02-15T12:03:47;99379.47;;;-0.05;100.00
68226;BME280;55045;49.410;11.030;2023-02-15T12:06:54;99372.66;;;-0.05;100.00
68226;BME280;55045;49.410;11.030;2023-02-15T12:10:16;99356.53;;;-0.02;100.00
68226;BME280;55045;49.410;11.030;2023-02-15T12:13:22;99349.88;;;0.06;100.00
68226;BME280;55045;49.410;11.030;2023-02-15T12:16:26;99339.19;;;0.35;100.00
68226;BME280;55045;49.410;11.030;2023-02-15T12:19:33;99321.00;;;0.84;100.00
68226;BME280;55045;49.410;11.030;2023-02-15T12:22:45;99326.69;;;0.59;100.00
68226;BME280;55045;49.410;11.030;2023-02-15T12:25:52;99324.44;;;0.91;100.00
68226;BME280;55045;49.410;11.030;2023-02-15T12:28:58;99312.50;;;0.85;100.00
68226;BME280;55045;49.410;11.030;2023-02-15T12:32:04;99298.97;;;0.96;100.00
68226;BME280;55045;49.410;11.030;2023-02-15T12:35:14;99298.44;;;1.33;100.00
68226;BME280;55045;49.410;11.030;2023-02-15T12:38:24;99291.56;;;1.29;100.00
68226;BME280;55045;49.410;11.030;2023-02-15T12:41:29;99284.59;;;1.07;100.00
68226;BME280;55045;49.410;11.030;2023-02-15T12:44:33;99297.47;;;1.19;100.00
68226;BME280;55045;49.410;11.030;2023-02-15T12:47:38;99293.44;;;1.53;100.00
68226;BME280;55045;49.410;11.030;2023-02-15T12:50:42;99291.63;;;1.37;100.00
68226;BME280;55045;49.410;11.030;2023-02-15T12:53:46;99290.03;;;1.50;100.00
68226;BME280;55045;49.410;11.030;2023-02-15T12:56:51;99270.47;;;1.55;100.00
68226;BME280;55045;49.410;11.030;2023-02-15T12:59:56;99267.00;;;1.43;100.00
68226;BME280;55045;49.410;11.030;2023-02-15T13:03:00;99254.53;;;2.14;100.00
68226;BME280;55045;49.410;11.030;2023-02-15T13:06:04;99263.88;;;2.02;100.00
68226;BME280;55045;49.410;11.030;2023-02-15T13:09:14;99270.75;;;2.07;100.00
68226;BME280;55045;49.410;11.030;2023-02-15T13:12:23;99272.41;;;2.00;100.00
68226;BME280;55045;49.410;11.030;2023-02-15T13:15:35;99255.50;;;2.46;100.00
68226;BME280;55045;49.410;11.030;2023-02-15T13:18:42;99264.75;;;2.05;100.00
68226;BME280;55045;49.410;11.030;2023-02-15T13:21:48;99247.84;;;2.74;100.00
68226;BME280;55045;49.410;11.030;2023-02-15T13:24:56;99247.84;;;2.65;100.00
68226;BME280;55045;49.410;11.030;2023-02-15T13:28:03;99247.84;;;2.58;100.00
68226;BME280;55045;49.410;11.030;2023-02-15T13:31:13;99239.34;;;2.67;100.00
68226;BME280;55045;49.410;11.030;2023-02-15T13:34:20;99235.91;;;2.59;100.00
68226;BME280;55045;49.410;11.030;2023-02-15T13:37:37;99244.41;;;2.66;100.00
68226;BME280;55045;49.410;11.030;2023-02-15T13:40:48;99231.63;;;2.59;100.00
68226;BME280;55045;49.410;11.030;2023-02-15T13:44:02;99242.75;;;2.71;100.00
68226;BME280;55045;49.410;11.030;2023-02-15T13:47:17;99240.19;;;2.81;100.00
68226;BME280;55045;49.410;11.030;2023-02-15T13:50:37;99247.84;;;2.55;100.00
68226;BME280;55045;49.410;11.030;2023-02-15T13:54:00;99230.75;;;2.45;100.00
68226;BME280;55045;49.410;11.030;2023-02-15T13:57:20;99242.72;;;2.72;100.00
68226;BME280;55045;49.410;11.030;2023-02-15T14:00:30;99250.44;;;2.81;100.00
68226;BME280;55045;49.410;11.030;2023-02-15T14:04:05;99238.47;;;2.85;100.00
68226;BME280;55045;49.410;11.030;2023-02-15T14:07:18;99244.47;;;3.21;100.00
68226;BME280;55045;49.410;11.030;2023-02-15T14:10:40;99241.91;;;3.28;100.00
68226;BME280;55045;49.410;11.030;2023-02-15T14:17:38;99234.13;;;3.62;100.00
68226;BME280;55045;49.410;11.030;2023-02-15T14:20:54;99192.38;;;2.88;100.00
68226;BME280;55045;49.410;11.030;2023-02-15T14:24:09;99229.03;;;3.46;100.00
68226;BME280;55045;49.410;11.030;2023-02-15T14:27:24;99236.72;;;3.43;100.00
68226;BME280;55045;49.410;11.030;2023-02-15T14:30:33;99237.63;;;3.18;100.00
68226;BME280;55045;49.410;11.030;2023-02-15T14:33:40;99224.78;;;3.39;100.00
68226;BME280;55045;49.410;11.030;2023-02-15T14:36:44;99233.25;;;3.66;100.00
68226;BME280;55045;49.410;11.030;2023-02-15T14:39:52;99210.25;;;3.40;100.00
68226;BME280;55045;49.410;11.030;2023-02-15T14:43:24;99220.44;;;3.70;100.00
68226;BME280;55045;49.410;11.030;2023-02-15T14:46:35;99216.16;;;3.69;100.00
68226;BME280;55045;49.410;11.030;2023-02-15T14:49:40;99212.66;;;3.87;100.00
68226;BME280;55045;49.410;11.030;2023-02-15T14:53:21;99220.50;;;3.43;100.00
68226;BME280;55045;49.410;11.030;2023-02-15T14:56:26;99212.72;;;3.80;100.00
68226;BME280;55045;49.410;11.030;2023-02-15T14:59:37;99188.03;;;3.36;100.00
68226;BME280;55045;49.410;11.030;2023-02-15T15:02:44;99221.34;;;3.45;100.00
68226;BME280;55045;49.410;11.030;2023-02-15T15:05:54;99215.34;;;3.60;100.00
68226;BME280;55045;49.410;11.030;2023-02-15T15:09:10;99207.66;;;3.52;100.00
68226;BME280;55045;49.410;11.030;2023-02-15T15:12:36;99190.53;;;3.62;100.00
68226;BME280;55045;49.410;11.030;2023-02-15T15:15:44;99203.41;;;3.50;100.00
68226;BME280;55045;49.410;11.030;2023-02-15T15:18:49;99215.41;;;3.28;100.00
68226;BME280;55045;49.410;11.030;2023-02-15T15:22:02;99199.97;;;3.44;100.00
68226;BME280;55045;49.410;11.030;2023-02-15T15:25:12;99205.09;;;3.43;100.00
68226;BME280;55045;49.410;11.030;2023-02-15T15:28:59;99203.38;;;3.46;100.00
68226;BME280;55045;49.410;11.030;2023-02-15T15:32:07;99209.41;;;3.33;100.00
68226;BME280;55045;49.410;11.030;2023-02-15T15:35:19;99202.59;;;3.18;100.00
68226;BME280;55045;49.410;11.030;2023-02-15T15:38:33;99206.00;;;3.19;100.00
68226;BME280;55045;49.410;11.030;2023-02-15T15:41:42;99201.75;;;3.27;100.00
68226;BME280;55045;49.410;11.030;2023-02-15T15:45:23;99210.31;;;2.89;100.00
68226;BME280;55045;49.410;11.030;2023-02-15T15:48:33;99209.44;;;3.10;100.00
68226;BME280;55045;49.410;11.030;2023-02-15T15:51:39;99216.28;;;3.08;100.00
68226;BME280;55045;49.410;11.030;2023-02-15T15:54:43;99204.31;;;3.03;100.00
68226;BME280;55045;49.410;11.030;2023-02-15T15:57:49;99202.59;;;2.96;100.00
68226;BME280;55045;49.410;11.030;2023-02-15T16:00:56;99210.28;;;2.70;100.00
68226;BME280;55045;49.410;11.030;2023-02-15T16:04:02;99208.56;;;2.59;100.00
68226;BME280;55045;49.410;11.030;2023-02-15T16:07:23;99215.38;;;2.36;100.00
68226;BME280;55045;49.410;11.030;2023-02-15T16:10:29;99211.91;;;2.19;100.00
68226;BME280;55045;49.410;11.030;2023-02-15T16:13:34;99211.03;;;2.08;100.00
68226;BME280;55045;49.410;11.030;2023-02-15T16:16:39;99227.16;;;1.88;100.00
68226;BME280;55045;49.410;11.030;2023-02-15T16:19:43;99216.03;;;1.80;100.00
68226;BME280;55045;49.410;11.030;2023-02-15T16:22:48;99226.22;;;1.71;100.00
68226;BME280;55045;49.410;11.030;2023-02-15T16:25:59;99232.97;;;1.58;100.00
68226;BME280;55045;49.410;11.030;2023-02-15T16:29:16;99229.44;;;1.39;100.00